East Lake, Minnesota
Current Conditions -  °F | °C
As of 2:26 AM on Friday 28 Nov 2014 (Local Time) from KHZX Reporting Station
Overcast Overcast  
Wind Chill: -4°   Ceiling: 9500
Heat Index:   Visibility: 4mi
Dew Point:   Wind: 8mph
Humidity: 85%   Direction: 150°SSE
Pressure: 30.12"   Gusts: NA
Location:  46.7232°N, 93.3159°W
Report Text: KHZX 280826Z AUTO 15007KT 4SM SCT070 OVC095 M13/M15 A3012 RMK AO2
Loading
Personal Weather Stations






























Interactive Weather Map New forecast layout! Learn more

10-Day Weather Forecast

Advertisements
Track Severe Weather on mobile